sensor_id;sensor_type;location;lat;lon;timestamp;pressure;altitude;pressure_sealevel;temperature;humidity
32109;BME280;18624;50.042;8.436;2023-12-04T00:00:25;100710.13;;;-1.94;100.00
32109;BME280;18624;50.042;8.436;2023-12-04T00:02:51;100708.13;;;-1.97;100.00
32109;BME280;18624;50.042;8.436;2023-12-04T00:05:18;100722.56;;;-1.77;100.00
32109;BME280;18624;50.042;8.436;2023-12-04T00:07:44;100681.47;;;-1.90;100.00
32109;BME280;18624;50.042;8.436;2023-12-04T00:10:10;100698.47;;;-1.86;100.00
32109;BME280;18624;50.042;8.436;2023-12-04T00:12:37;100686.94;;;-1.87;100.00
32109;BME280;18624;50.042;8.436;2023-12-04T00:15:04;100686.84;;;-1.78;100.00
32109;BME280;18624;50.042;8.436;2023-12-04T00:17:31;100688.81;;;-1.63;100.00
32109;BME280;18624;50.042;8.436;2023-12-04T00:19:57;100636.91;;;-1.91;100.00
32109;BME280;18624;50.042;8.436;2023-12-04T00:22:24;100709.06;;;-1.41;100.00
32109;BME280;18624;50.042;8.436;2023-12-04T00:24:50;100667.91;;;-1.69;100.00
32109;BME280;18624;50.042;8.436;2023-12-04T00:27:17;100660.84;;;-1.62;100.00
32109;BME280;18624;50.042;8.436;2023-12-04T00:29:43;100649.88;;;-1.69;100.00
32109;BME280;18624;50.042;8.436;2023-12-04T00:32:10;100674.34;;;-1.46;100.00
32109;BME280;18624;50.042;8.436;2023-12-04T00:34:36;100580.53;;;-2.16;100.00
32109;BME280;18624;50.042;8.436;2023-12-04T00:37:03;100646.75;;;-1.71;100.00
32109;BME280;18624;50.042;8.436;2023-12-04T00:39:29;100661.88;;;-1.66;100.00
32109;BME280;18624;50.042;8.436;2023-12-04T00:41:56;100670.91;;;-1.59;100.00
32109;BME280;18624;50.042;8.436;2023-12-04T00:44:22;100660.84;;;-1.62;100.00
32109;BME280;18624;50.042;8.436;2023-12-04T00:46:49;100669.56;;;-1.52;100.00
32109;BME280;18624;50.042;8.436;2023-12-04T00:49:15;100649.75;;;-1.60;100.00
32109;BME280;18624;50.042;8.436;2023-12-04T00:51:42;100653.22;;;-1.60;100.00
32109;BME280;18624;50.042;8.436;2023-12-04T00:54:09;100644.84;;;-1.70;100.00
32109;BME280;18624;50.042;8.436;2023-12-04T00:56:40;100672.97;;;-1.40;100.00
32109;BME280;18624;50.042;8.436;2023-12-04T00:59:10;100612.47;;;-1.74;100.00
32109;BME280;18624;50.042;8.436;2023-12-04T01:01:37;100655.78;;;-1.51;100.00
32109;BME280;18624;50.042;8.436;2023-12-04T01:04:04;100624.13;;;-1.82;100.00
32109;BME280;18624;50.042;8.436;2023-12-04T01:06:30;100609.63;;;-1.93;100.00
32109;BME280;18624;50.042;8.436;2023-12-04T01:08:57;100609.16;;;-2.08;100.00
32109;BME280;18624;50.042;8.436;2023-12-04T01:11:23;100650.47;;;-1.88;100.00
32109;BME280;18624;50.042;8.436;2023-12-04T01:13:50;100622.03;;;-2.01;100.00
32109;BME280;18624;50.042;8.436;2023-12-04T01:16:17;100590.81;;;-2.18;100.00
32109;BME280;18624;50.042;8.436;2023-12-04T01:18:43;100617.22;;;-1.95;100.00
32109;BME280;18624;50.042;8.436;2023-12-04T01:21:10;100608.06;;;-2.07;100.00
32109;BME280;18624;50.042;8.436;2023-12-04T01:23:37;100586.56;;;-2.19;100.00
32109;BME280;18624;50.042;8.436;2023-12-04T01:26:04;100574.28;;;-2.20;100.00
32109;BME280;18624;50.042;8.436;2023-12-04T01:28:30;100609.50;;;-1.97;100.00
32109;BME280;18624;50.042;8.436;2023-12-04T01:30:57;100548.66;;;-2.30;100.00
32109;BME280;18624;50.042;8.436;2023-12-04T01:33:23;100597.97;;;-1.97;100.00
32109;BME280;18624;50.042;8.436;2023-12-04T01:35:50;100598.06;;;-1.94;100.00
32109;BME280;18624;50.042;8.436;2023-12-04T01:38:17;100597.31;;;-2.07;100.00
32109;BME280;18624;50.042;8.436;2023-12-04T01:40:43;100613.19;;;-2.01;100.00
32109;BME280;18624;50.042;8.436;2023-12-04T01:43:10;100615.22;;;-2.11;100.00
32109;BME280;18624;50.042;8.436;2023-12-04T01:45:36;100621.69;;;-2.12;100.00
32109;BME280;18624;50.042;8.436;2023-12-04T01:48:04;100601.91;;;-2.19;100.00
32109;BME280;18624;50.042;8.436;2023-12-04T01:50:33;100544.84;;;-2.41;100.00
32109;BME280;18624;50.042;8.436;2023-12-04T01:53:01;100612.50;;;-1.86;100.00
32109;BME280;18624;50.042;8.436;2023-12-04T01:55:28;100621.91;;;-1.92;100.00
32109;BME280;18624;50.042;8.436;2023-12-04T01:57:56;100591.72;;;-2.26;100.00
32109;BME280;18624;50.042;8.436;2023-12-04T02:00:24;100606.81;;;-2.21;100.00
32109;BME280;18624;50.042;8.436;2023-12-04T02:02:51;100602.56;;;-2.22;100.00
32109;BME280;18624;50.042;8.436;2023-12-04T02:05:18;100580.44;;;-2.32;100.00
32109;BME280;18624;50.042;8.436;2023-12-04T02:07:46;100595.75;;;-2.20;100.00
32109;BME280;18624;50.042;8.436;2023-12-04T02:10:12;100525.97;;;-2.57;100.00
32109;BME280;18624;50.042;8.436;2023-12-04T02:12:39;100583.22;;;-2.16;100.00
32109;BME280;18624;50.042;8.436;2023-12-04T02:15:06;100589.91;;;-1.97;100.00
32109;BME280;18624;50.042;8.436;2023-12-04T02:17:32;100568.13;;;-2.33;100.00
32109;BME280;18624;50.042;8.436;2023-12-04T02:19:59;100579.97;;;-2.09;100.00
32109;BME280;18624;50.042;8.436;2023-12-04T02:22:26;100532.56;;;-2.30;100.00
32109;BME280;18624;50.042;8.436;2023-12-04T02:24:52;100555.22;;;-2.02;100.00
32109;BME280;18624;50.042;8.436;2023-12-04T02:27:25;100603.09;;;-1.80;100.00
32109;BME280;18624;50.042;8.436;2023-12-04T02:29:56;100544.28;;;-2.22;100.00
32109;BME280;18624;50.042;8.436;2023-12-04T02:32:24;100597.75;;;-1.92;100.00
32109;BME280;18624;50.042;8.436;2023-12-04T02:34:54;100543.50;;;-2.22;100.00
32109;BME280;18624;50.042;8.436;2023-12-04T02:37:22;100521.94;;;-2.38;100.00
32109;BME280;18624;50.042;8.436;2023-12-04T02:39:50;100555.25;;;-2.15;100.00
32109;BME280;18624;50.042;8.436;2023-12-04T02:42:19;100534.78;;;-2.19;100.00
32109;BME280;18624;50.042;8.436;2023-12-04T02:44:45;100545.16;;;-2.30;100.00
32109;BME280;18624;50.042;8.436;2023-12-04T02:47:12;100560.50;;;-2.18;100.00
32109;BME280;18624;50.042;8.436;2023-12-04T02:49:38;100537.09;;;-2.18;100.00
32109;BME280;18624;50.042;8.436;2023-12-04T02:52:05;100533.75;;;-2.15;100.00
32109;BME280;18624;50.042;8.436;2023-12-04T02:54:31;100467.78;;;-2.52;100.00
32109;BME280;18624;50.042;8.436;2023-12-04T02:56:58;100544.13;;;-2.01;100.00
32109;BME280;18624;50.042;8.436;2023-12-04T02:59:25;100473.38;;;-2.33;100.00
32109;BME280;18624;50.042;8.436;2023-12-04T03:01:51;100514.25;;;-2.12;100.00
32109;BME280;18624;50.042;8.436;2023-12-04T03:04:19;100526.53;;;-1.98;100.00
32109;BME280;18624;50.042;8.436;2023-12-04T03:06:46;100486.75;;;-2.21;100.00
32109;BME280;18624;50.042;8.436;2023-12-04T03:09:12;100474.94;;;-2.32;100.00
32109;BME280;18624;50.042;8.436;2023-12-04T03:11:40;100538.75;;;-1.89;100.00
32109;BME280;18624;50.042;8.436;2023-12-04T03:14:07;100507.56;;;-2.06;100.00
32109;BME280;18624;50.042;8.436;2023-12-04T03:16:33;100514.50;;;-2.17;100.00
32109;BME280;18624;50.042;8.436;2023-12-04T03:19:00;100491.47;;;-2.30;100.00
32109;BME280;18624;50.042;8.436;2023-12-04T03:21:27;100478.19;;;-2.39;100.00
32109;BME280;18624;50.042;8.436;2023-12-04T03:23:55;100493.25;;;-2.22;100.00
32109;BME280;18624;50.042;8.436;2023-12-04T03:26:21;100514.47;;;-2.05;100.00
32109;BME280;18624;50.042;8.436;2023-12-04T03:28:48;100456.69;;;-2.39;100.00
32109;BME280;18624;50.042;8.436;2023-12-04T03:31:14;100463.75;;;-2.34;100.00
32109;BME280;18624;50.042;8.436;2023-12-04T03:33:41;100496.03;;;-2.06;100.00
32109;BME280;18624;50.042;8.436;2023-12-04T03:36:07;100497.59;;;-2.05;100.00
32109;BME280;18624;50.042;8.436;2023-12-04T03:38:34;100457.16;;;-2.49;100.00
32109;BME280;18624;50.042;8.436;2023-12-04T03:41:00;100421.97;;;-2.72;100.00
32109;BME280;18624;50.042;8.436;2023-12-04T03:43:27;100476.59;;;-2.27;100.00
32109;BME280;18624;50.042;8.436;2023-12-04T03:45:53;100453.69;;;-2.37;100.00
32109;BME280;18624;50.042;8.436;2023-12-04T03:48:20;100475.34;;;-2.18;100.00
32109;BME280;18624;50.042;8.436;2023-12-04T03:50:47;100463.53;;;-2.41;100.00
32109;BME280;18624;50.042;8.436;2023-12-04T03:53:13;100451.69;;;-2.40;100.00
32109;BME280;18624;50.042;8.436;2023-12-04T03:55:40;100469.88;;;-2.21;100.00
32109;BME280;18624;50.042;8.436;2023-12-04T03:58:06;100433.25;;;-2.42;100.00
32109;BME280;18624;50.042;8.436;2023-12-04T04:00:33;100405.41;;;-2.62;100.00
32109;BME280;18624;50.042;8.436;2023-12-04T04:03:00;100448.75;;;-2.35;100.00
32109;BME280;18624;50.042;8.436;2023-12-04T04:05:26;100418.84;;;-2.62;100.00
32109;BME280;18624;50.042;8.436;2023-12-04T04:07:53;100435.81;;;-2.45;100.00
32109;BME280;18624;50.042;8.436;2023-12-04T04:10:19;100468.66;;;-2.24;100.00
32109;BME280;18624;50.042;8.436;2023-12-04T04:12:46;100469.53;;;-2.20;100.00
32109;BME280;18624;50.042;8.436;2023-12-04T04:15:12;100406.66;;;-2.59;100.00
32109;BME280;18624;50.042;8.436;2023-12-04T04:17:39;100450.78;;;-2.32;100.00
32109;BME280;18624;50.042;8.436;2023-12-04T04:20:06;100437.38;;;-2.44;100.00
32109;BME280;18624;50.042;8.436;2023-12-04T04:22:33;100440.41;;;-2.46;100.00
32109;BME280;18624;50.042;8.436;2023-12-04T04:25:08;100456.13;;;-2.32;100.00
32109;BME280;18624;50.042;8.436;2023-12-04T04:27:35;100412.38;;;-2.61;100.00
32109;BME280;18624;50.042;8.436;2023-12-04T04:30:02;100466.84;;;-2.20;100.00
32109;BME280;18624;50.042;8.436;2023-12-04T04:32:28;100478.56;;;-2.12;100.00
32109;BME280;18624;50.042;8.436;2023-12-04T04:34:55;100417.59;;;-2.52;100.00
32109;BME280;18624;50.042;8.436;2023-12-04T04:37:22;100467.78;;;-2.28;100.00
32109;BME280;18624;50.042;8.436;2023-12-04T04:39:48;100444.66;;;-2.45;100.00
32109;BME280;18624;50.042;8.436;2023-12-04T04:42:15;100426.44;;;-2.64;100.00
32109;BME280;18624;50.042;8.436;2023-12-04T04:44:41;100417.50;;;-2.56;100.00
32109;BME280;18624;50.042;8.436;2023-12-04T04:47:08;100435.81;;;-2.58;100.00
32109;BME280;18624;50.042;8.436;2023-12-04T04:49:34;100422.31;;;-2.61;100.00
32109;BME280;18624;50.042;8.436;2023-12-04T04:52:01;100440.88;;;-2.56;100.00
32109;BME280;18624;50.042;8.436;2023-12-04T04:54:30;100445.31;;;-2.48;100.00
32109;BME280;18624;50.042;8.436;2023-12-04T04:56:57;100423.41;;;-2.50;100.00
32109;BME280;18624;50.042;8.436;2023-12-04T04:59:24;100400.41;;;-2.75;100.00
32109;BME280;18624;50.042;8.436;2023-12-04T05:01:51;100389.13;;;-2.93;100.00
32109;BME280;18624;50.042;8.436;2023-12-04T05:04:17;100404.75;;;-2.71;100.00
32109;BME280;18624;50.042;8.436;2023-12-04T05:06:44;100404.22;;;-2.64;100.00
32109;BME280;18624;50.042;8.436;2023-12-04T05:09:10;100393.13;;;-2.75;100.00
32109;BME280;18624;50.042;8.436;2023-12-04T05:11:37;100418.16;;;-2.59;100.00
32109;BME280;18624;50.042;8.436;2023-12-04T05:14:03;100396.63;;;-2.74;100.00
32109;BME280;18624;50.042;8.436;2023-12-04T05:16:30;100424.66;;;-2.60;100.00
32109;BME280;18624;50.042;8.436;2023-12-04T05:18:56;100429.34;;;-2.57;100.00
32109;BME280;18624;50.042;8.436;2023-12-04T05:21:23;100368.69;;;-2.98;100.00
32109;BME280;18624;50.042;8.436;2023-12-04T05:23:49;100354.19;;;-2.97;100.00
32109;BME280;18624;50.042;8.436;2023-12-04T05:26:16;100440.28;;;-2.37;100.00
32109;BME280;18624;50.042;8.436;2023-12-04T05:28:42;100407.53;;;-2.55;100.00
32109;BME280;18624;50.042;8.436;2023-12-04T05:31:09;100412.91;;;-2.55;100.00
32109;BME280;18624;50.042;8.436;2023-12-04T05:33:35;100407.13;;;-2.69;100.00
32109;BME280;18624;50.042;8.436;2023-12-04T05:36:02;100407.00;;;-2.73;100.00
32109;BME280;18624;50.042;8.436;2023-12-04T05:38:29;100383.22;;;-2.87;100.00
32109;BME280;18624;50.042;8.436;2023-12-04T05:40:55;100394.59;;;-2.65;100.00
32109;BME280;18624;50.042;8.436;2023-12-04T05:43:22;100374.72;;;-2.76;100.00
32109;BME280;18624;50.042;8.436;2023-12-04T05:45:48;100394.13;;;-2.67;100.00
32109;BME280;18624;50.042;8.436;2023-12-04T05:48:18;100408.66;;;-2.56;100.00
32109;BME280;18624;50.042;8.436;2023-12-04T05:50:44;100387.56;;;-2.70;100.00
32109;BME280;18624;50.042;8.436;2023-12-04T05:53:11;100380.84;;;-2.76;100.00
32109;BME280;18624;50.042;8.436;2023-12-04T05:55:37;100336.63;;;-3.07;100.00
32109;BME280;18624;50.042;8.436;2023-12-04T05:58:04;100386.56;;;-2.77;100.00
32109;BME280;18624;50.042;8.436;2023-12-04T06:00:30;100355.06;;;-2.93;100.00
32109;BME280;18624;50.042;8.436;2023-12-04T06:02:57;100350.63;;;-3.01;100.00
32109;BME280;18624;50.042;8.436;2023-12-04T06:05:23;100265.44;;;-3.57;100.00
32109;BME280;18624;50.042;8.436;2023-12-04T06:07:50;100342.91;;;-3.15;100.00
32109;BME280;18624;50.042;8.436;2023-12-04T06:10:16;100331.53;;;-3.24;100.00
32109;BME280;18624;50.042;8.436;2023-12-04T06:12:43;100388.16;;;-3.01;100.00
32109;BME280;18624;50.042;8.436;2023-12-04T06:15:10;100363.78;;;-3.08;100.00
32109;BME280;18624;50.042;8.436;2023-12-04T06:17:36;100351.63;;;-3.18;100.00
32109;BME280;18624;50.042;8.436;2023-12-04T06:20:03;100338.09;;;-3.09;100.00
32109;BME280;18624;50.042;8.436;2023-12-04T06:22:30;100355.38;;;-2.82;100.00
32109;BME280;18624;50.042;8.436;2023-12-04T06:24:56;100281.81;;;-3.34;100.00
32109;BME280;18624;50.042;8.436;2023-12-04T06:27:23;100367.03;;;-2.90;100.00
32109;BME280;18624;50.042;8.436;2023-12-04T06:29:50;100377.03;;;-2.75;100.00
32109;BME280;18624;50.042;8.436;2023-12-04T06:32:19;100388.09;;;-2.52;100.00
32109;BME280;18624;50.042;8.436;2023-12-04T06:34:46;100373.06;;;-2.41;100.00
32109;BME280;18624;50.042;8.436;2023-12-04T06:37:13;100338.91;;;-2.68;100.00
32109;BME280;18624;50.042;8.436;2023-12-04T06:39:40;100310.34;;;-2.89;100.00
32109;BME280;18624;50.042;8.436;2023-12-04T06:42:08;100367.06;;;-2.62;100.00
32109;BME280;18624;50.042;8.436;2023-12-04T06:44:35;100350.78;;;-2.69;100.00
32109;BME280;18624;50.042;8.436;2023-12-04T06:47:02;100317.50;;;-2.93;100.00
32109;BME280;18624;50.042;8.436;2023-12-04T06:49:30;100292.06;;;-3.11;100.00
32109;BME280;18624;50.042;8.436;2023-12-04T06:51:58;100294.53;;;-3.18;100.00
32109;BME280;18624;50.042;8.436;2023-12-04T06:54:24;100315.06;;;-2.98;100.00
32109;BME280;18624;50.042;8.436;2023-12-04T06:56:51;100303.78;;;-2.91;100.00
32109;BME280;18624;50.042;8.436;2023-12-04T06:59:18;100334.97;;;-2.59;100.00
32109;BME280;18624;50.042;8.436;2023-12-04T07:01:45;100265.22;;;-2.99;100.00
32109;BME280;18624;50.042;8.436;2023-12-04T07:04:11;100304.03;;;-2.68;100.00
32109;BME280;18624;50.042;8.436;2023-12-04T07:06:39;100316.19;;;-2.59;100.00
32109;BME280;18624;50.042;8.436;2023-12-04T07:09:06;100275.53;;;-2.73;100.00
32109;BME280;18624;50.042;8.436;2023-12-04T07:11:34;100324.63;;;-2.44;100.00
32109;BME280;18624;50.042;8.436;2023-12-04T07:14:01;100289.84;;;-2.69;100.00
32109;BME280;18624;50.042;8.436;2023-12-04T07:16:27;100290.91;;;-2.58;100.00
32109;BME280;18624;50.042;8.436;2023-12-04T07:18:54;100292.13;;;-2.55;100.00
32109;BME280;18624;50.042;8.436;2023-12-04T07:21:20;100280.16;;;-2.58;100.00
32109;BME280;18624;50.042;8.436;2023-12-04T07:23:47;100270.47;;;-2.62;100.00
32109;BME280;18624;50.042;8.436;2023-12-04T07:26:13;100268.94;;;-2.75;100.00
32109;BME280;18624;50.042;8.436;2023-12-04T07:28:40;100255.00;;;-2.81;100.00
32109;BME280;18624;50.042;8.436;2023-12-04T07:31:06;100275.91;;;-2.74;100.00
32109;BME280;18624;50.042;8.436;2023-12-04T07:33:33;100240.72;;;-2.85;100.00
32109;BME280;18624;50.042;8.436;2023-12-04T07:36:00;100298.00;;;-2.37;100.00
32109;BME280;18624;50.042;8.436;2023-12-04T07:38:27;100178.56;;;-3.15;100.00
32109;BME280;18624;50.042;8.436;2023-12-04T07:40:54;100269.53;;;-2.54;100.00
32109;BME280;18624;50.042;8.436;2023-12-04T07:43:21;100265.56;;;-2.60;100.00
32109;BME280;18624;50.042;8.436;2023-12-04T07:45:47;100292.78;;;-2.30;100.00
32109;BME280;18624;50.042;8.436;2023-12-04T07:48:14;100226.38;;;-2.77;100.00
32109;BME280;18624;50.042;8.436;2023-12-04T07:50:41;100217.69;;;-2.86;100.00
32109;BME280;18624;50.042;8.436;2023-12-04T07:53:07;100251.72;;;-2.46;100.00
32109;BME280;18624;50.042;8.436;2023-12-04T07:55:38;100269.34;;;-2.17;100.00
32109;BME280;18624;50.042;8.436;2023-12-04T07:58:04;100286.69;;;-1.99;100.00
32109;BME280;18624;50.042;8.436;2023-12-04T08:00:31;100263.88;;;-2.21;100.00
32109;BME280;18624;50.042;8.436;2023-12-04T08:02:57;100242.84;;;-2.19;100.00
32109;BME280;18624;50.042;8.436;2023-12-04T08:05:24;100269.78;;;-1.99;98.98
32109;BME280;18624;50.042;8.436;2023-12-04T08:07:50;100222.16;;;-2.34;98.10
32109;BME280;18624;50.042;8.436;2023-12-04T08:10:17;100254.78;;;-2.16;97.78
32109;BME280;18624;50.042;8.436;2023-12-04T08:12:45;100261.91;;;-2.08;97.77
32109;BME280;18624;50.042;8.436;2023-12-04T08:15:12;100257.50;;;-2.00;97.12
32109;BME280;18624;50.042;8.436;2023-12-04T08:17:39;100119.84;;;-2.92;95.09
32109;BME280;18624;50.042;8.436;2023-12-04T08:20:06;100258.78;;;-1.94;95.30
32109;BME280;18624;50.042;8.436;2023-12-04T08:22:33;100254.31;;;-2.06;95.12
32109;BME280;18624;50.042;8.436;2023-12-04T08:24:59;100212.19;;;-2.34;95.06
32109;BME280;18624;50.042;8.436;2023-12-04T08:27:26;100218.50;;;-2.26;95.00
32109;BME280;18624;50.042;8.436;2023-12-04T08:29:53;100213.56;;;-2.24;95.51
32109;BME280;18624;50.042;8.436;2023-12-04T08:32:19;100252.38;;;-1.90;96.07
32109;BME280;18624;50.042;8.436;2023-12-04T08:34:47;100229.06;;;-1.86;95.47
32109;BME280;18624;50.042;8.436;2023-12-04T08:37:14;100204.91;;;-2.01;95.90
32109;BME280;18624;50.042;8.436;2023-12-04T08:39:40;100191.47;;;-2.01;95.98
32109;BME280;18624;50.042;8.436;2023-12-04T08:42:07;100207.47;;;-1.89;96.41
32109;BME280;18624;50.042;8.436;2023-12-04T08:44:42;100210.19;;;-2.05;97.02
32109;BME280;18624;50.042;8.436;2023-12-04T08:47:09;100221.53;;;-1.80;96.37
32109;BME280;18624;50.042;8.436;2023-12-04T08:49:35;100154.16;;;-2.22;94.96
32109;BME280;18624;50.042;8.436;2023-12-04T08:52:13;100220.91;;;-1.73;94.07
32109;BME280;18624;50.042;8.436;2023-12-04T08:54:40;100180.84;;;-1.98;93.21
32109;BME280;18624;50.042;8.436;2023-12-04T08:57:09;100196.72;;;-1.73;93.23
32109;BME280;18624;50.042;8.436;2023-12-04T08:59:36;100212.47;;;-1.56;93.35
32109;BME280;18624;50.042;8.436;2023-12-04T09:02:03;100165.91;;;-1.95;93.48
32109;BME280;18624;50.042;8.436;2023-12-04T09:04:33;100165.31;;;-1.89;93.71
32109;BME280;18624;50.042;8.436;2023-12-04T09:07:00;100209.19;;;-1.65;93.21
32109;BME280;18624;50.042;8.436;2023-12-04T09:09:47;100198.78;;;-1.67;92.59
32109;BME280;18624;50.042;8.436;2023-12-04T09:12:13;100164.78;;;-1.94;92.32
32109;BME280;18624;50.042;8.436;2023-12-04T09:14:40;100158.75;;;-2.07;92.11
32109;BME280;18624;50.042;8.436;2023-12-04T09:17:07;100203.06;;;-1.66;91.69
32109;BME280;18624;50.042;8.436;2023-12-04T09:19:34;100188.31;;;-1.72;92.53
32109;BME280;18624;50.042;8.436;2023-12-04T09:22:01;100146.50;;;-2.05;91.41
32109;BME280;18624;50.042;8.436;2023-12-04T09:24:38;100177.91;;;-1.73;91.33
32109;BME280;18624;50.042;8.436;2023-12-04T09:27:04;100204.06;;;-1.55;89.38
32109;BME280;18624;50.042;8.436;2023-12-04T09:29:33;100175.59;;;-1.75;88.98
32109;BME280;18624;50.042;8.436;2023-12-04T09:32:00;100181.56;;;-1.82;90.01
32109;BME280;18624;50.042;8.436;2023-12-04T09:34:27;100155.16;;;-1.95;90.58
32109;BME280;18624;50.042;8.436;2023-12-04T09:36:54;100221.41;;;-1.52;89.51
32109;BME280;18624;50.042;8.436;2023-12-04T09:39:28;100178.00;;;-1.70;88.54
32109;BME280;18624;50.042;8.436;2023-12-04T09:41:54;100134.53;;;-1.91;88.65
32109;BME280;18624;50.042;8.436;2023-12-04T09:44:28;100176.31;;;-1.59;88.71
32109;BME280;18624;50.042;8.436;2023-12-04T09:46:55;100120.78;;;-2.06;87.99
32109;BME280;18624;50.042;8.436;2023-12-04T09:49:22;100155.19;;;-1.76;88.58
32109;BME280;18624;50.042;8.436;2023-12-04T09:51:50;100156.03;;;-1.91;88.20
32109;BME280;18624;50.042;8.436;2023-12-04T09:54:19;100222.06;;;-1.39;88.97
32109;BME280;18624;50.042;8.436;2023-12-04T09:56:46;100069.03;;;-2.53;88.87
32109;BME280;18624;50.042;8.436;2023-12-04T09:59:13;100216.63;;;-1.43;89.19
32109;BME280;18624;50.042;8.436;2023-12-04T10:01:43;100184.00;;;-1.41;89.31
32109;BME280;18624;50.042;8.436;2023-12-04T10:04:10;100195.03;;;-1.27;88.15
32109;BME280;18624;50.042;8.436;2023-12-04T10:06:37;100193.69;;;-1.17;88.26
32109;BME280;18624;50.042;8.436;2023-12-04T10:09:04;100121.78;;;-1.59;88.98
32109;BME280;18624;50.042;8.436;2023-12-04T10:11:47;100162.72;;;-1.31;88.62
32109;BME280;18624;50.042;8.436;2023-12-04T10:14:20;100172.53;;;-1.19;88.35
32109;BME280;18624;50.042;8.436;2023-12-04T10:16:48;100175.44;;;-1.28;90.33
32109;BME280;18624;50.042;8.436;2023-12-04T10:19:25;100151.06;;;-1.54;93.29
32109;BME280;18624;50.042;8.436;2023-12-04T10:21:58;100173.81;;;-1.32;94.11
32109;BME280;18624;50.042;8.436;2023-12-04T10:24:35;100181.31;;;-1.22;94.33
32109;BME280;18624;50.042;8.436;2023-12-04T10:27:04;100097.47;;;-1.66;94.56
32109;BME280;18624;50.042;8.436;2023-12-04T10:29:43;100069.22;;;-1.76;94.84
32109;BME280;18624;50.042;8.436;2023-12-04T10:32:10;100095.56;;;-1.66;94.76
32109;BME280;18624;50.042;8.436;2023-12-04T10:34:37;100146.50;;;-1.34;94.42
32109;BME280;18624;50.042;8.436;2023-12-04T10:37:04;100160.09;;;-1.27;93.89
32109;BME280;18624;50.042;8.436;2023-12-04T10:39:33;100090.03;;;-1.73;92.99
32109;BME280;18624;50.042;8.436;2023-12-04T10:42:11;100158.69;;;-1.21;93.44
32109;BME280;18624;50.042;8.436;2023-12-04T10:44:40;100147.56;;;-1.19;91.38
32109;BME280;18624;50.042;8.436;2023-12-04T10:47:06;100134.41;;;-1.24;88.04
32109;BME280;18624;50.042;8.436;2023-12-04T10:49:34;100150.03;;;-1.11;87.26
32109;BME280;18624;50.042;8.436;2023-12-04T10:52:01;100136.16;;;-1.13;87.22
32109;BME280;18624;50.042;8.436;2023-12-04T10:54:28;100137.91;;;-1.01;86.79
32109;BME280;18624;50.042;8.436;2023-12-04T10:56:59;100080.00;;;-1.37;85.61
32109;BME280;18624;50.042;8.436;2023-12-04T10:59:32;100149.16;;;-0.95;85.47
32109;BME280;18624;50.042;8.436;2023-12-04T11:02:04;100108.34;;;-1.20;85.86
32109;BME280;18624;50.042;8.436;2023-12-04T11:04:33;100065.56;;;-1.48;85.47
32109;BME280;18624;50.042;8.436;2023-12-04T11:07:02;100096.88;;;-1.17;85.74
32109;BME280;18624;50.042;8.436;2023-12-04T11:09:35;100102.53;;;-1.03;86.60
32109;BME280;18624;50.042;8.436;2023-12-04T11:12:04;100096.16;;;-1.14;85.69
32109;BME280;18624;50.042;8.436;2023-12-04T11:14:39;100039.88;;;-1.46;86.10
32109;BME280;18624;50.042;8.436;2023-12-04T11:17:10;100096.88;;;-0.98;86.90
32109;BME280;18624;50.042;8.436;2023-12-04T11:19:52;100110.97;;;-0.82;85.82
32109;BME280;18624;50.042;8.436;2023-12-04T11:22:21;100020.84;;;-1.37;85.30
32109;BME280;18624;50.042;8.436;2023-12-04T11:24:48;100040.22;;;-1.28;85.86
32109;BME280;18624;50.042;8.436;2023-12-04T11:27:16;100068.81;;;-0.97;86.79
32109;BME280;18624;50.042;8.436;2023-12-04T11:29:44;100010.22;;;-1.30;85.79
32109;BME280;18624;50.042;8.436;2023-12-04T11:32:15;100000.00;;;-1.44;87.56
32109;BME280;18624;50.042;8.436;2023-12-04T11:34:54;99986.34;;;-1.55;88.99
32109;BME280;18624;50.042;8.436;2023-12-04T11:37:22;99986.09;;;-1.46;90.25
32109;BME280;18624;50.042;8.436;2023-12-04T11:39:50;99998.31;;;-1.29;91.56
32109;BME280;18624;50.042;8.436;2023-12-04T11:42:24;100040.16;;;-1.09;94.34
32109;BME280;18624;50.042;8.436;2023-12-04T11:44:57;100050.41;;;-0.95;96.92
32109;BME280;18624;50.042;8.436;2023-12-04T11:47:24;100039.91;;;-1.04;97.45
32109;BME280;18624;50.042;8.436;2023-12-04T11:49:51;100024.00;;;-1.12;100.00
32109;BME280;18624;50.042;8.436;2023-12-04T11:52:32;100019.91;;;-1.25;100.00
32109;BME280;18624;50.042;8.436;2023-12-04T11:57:42;99982.66;;;-1.46;100.00
32109;BME280;18624;50.042;8.436;2023-12-04T12:02:46;100016.91;;;-1.43;100.00
32109;BME280;18624;50.042;8.436;2023-12-04T12:05:33;99930.66;;;-1.96;100.00
32109;BME280;18624;50.042;8.436;2023-12-04T12:08:05;99997.53;;;-1.52;100.00
32109;BME280;18624;50.042;8.436;2023-12-04T12:10:33;99952.91;;;-1.76;100.00
32109;BME280;18624;50.042;8.436;2023-12-04T12:13:00;99990.53;;;-1.57;100.00
32109;BME280;18624;50.042;8.436;2023-12-04T12:15:28;99977.34;;;-1.62;100.00
32109;BME280;18624;50.042;8.436;2023-12-04T12:17:54;100001.84;;;-1.67;100.00
32109;BME280;18624;50.042;8.436;2023-12-04T12:20:21;99958.31;;;-1.96;100.00
32109;BME280;18624;50.042;8.436;2023-12-04T12:22:48;99961.91;;;-1.88;100.00
32109;BME280;18624;50.042;8.436;2023-12-04T12:25:15;99881.22;;;-2.34;100.00
32109;BME280;18624;50.042;8.436;2023-12-04T12:27:43;99859.22;;;-2.40;100.00
32109;BME280;18624;50.042;8.436;2023-12-04T12:30:10;99835.13;;;-2.75;100.00
32109;BME280;18624;50.042;8.436;2023-12-04T12:32:36;99810.00;;;-2.67;100.00
32109;BME280;18624;50.042;8.436;2023-12-04T12:35:04;99910.31;;;-1.97;100.00
32109;BME280;18624;50.042;8.436;2023-12-04T12:37:30;99853.03;;;-2.24;100.00
32109;BME280;18624;50.042;8.436;2023-12-04T12:39:57;99902.66;;;-1.95;100.00
32109;BME280;18624;50.042;8.436;2023-12-04T12:42:28;99895.03;;;-1.93;100.00
32109;BME280;18624;50.042;8.436;2023-12-04T12:44:55;99902.41;;;-1.67;100.00
32109;BME280;18624;50.042;8.436;2023-12-04T12:47:26;99648.81;;;-3.39;100.00
32109;BME280;18624;50.042;8.436;2023-12-04T12:49:53;99910.81;;;-1.69;100.00